Time;durP1;ratioP1;P1;durP2;ratioP2;P2;SDS_P1;SDS_P2;PMS_P1;PMS_P2;Temp;Humidity;BMP_temperature;BMP_pressure;BME280_temperature;BME280_humidity;BME280_pressure;Samples;Min_cycle;Max_cycle;Signal;HPM_P1;HPM_P2
2022/03/17 00:00:02;;;;;;;15.80;13.55;;;9.80;1.00;;;;;;5054536;28;20860;-60
2022/03/17 00:02:29;;;;;;;16.45;12.80;;;9.70;1.00;;;;;;5056648;28;20520;-60
2022/03/17 00:04:56;;;;;;;16.77;12.48;;;9.70;1.00;;;;;;5054834;28;20536;-60
2022/03/17 00:07:23;;;;;;;16.15;12.55;;;9.70;1.00;;;;;;5055149;28;20856;-61
2022/03/17 00:09:50;;;;;;;14.95;13.25;;;9.70;1.00;;;;;;5054521;28;20939;-60
2022/03/17 00:12:18;;;;;;;15.13;12.00;;;9.70;1.00;;;;;;5054190;28;20817;-60
2022/03/17 00:14:45;;;;;;;14.32;12.55;;;9.70;1.00;;;;;;5053306;28;20718;-60
2022/03/17 00:17:12;;;;;;;14.40;12.03;;;9.70;1.00;;;;;;5054248;28;20520;-60
2022/03/17 00:19:39;;;;;;;14.63;12.35;;;9.70;1.00;;;;;;5072630;28;20427;-59
2022/03/17 00:22:08;;;;;;;15.50;12.63;;;9.80;1.00;;;;;;5076541;28;20419;-60
2022/03/17 00:24:36;;;;;;;12.90;11.05;;;9.80;1.00;;;;;;5075665;28;20467;-60
2022/03/17 00:27:05;;;;;;;15.65;12.88;;;9.80;1.00;;;;;;5070591;28;20429;-60
2022/03/17 00:29:34;;;;;;;14.43;12.30;;;9.80;1.00;;;;;;5056515;28;20520;-61
2022/03/17 00:32:00;;;;;;;14.48;12.48;;;9.80;1.00;;;;;;5055738;28;20650;-60
2022/03/17 00:34:27;;;;;;;16.88;13.52;;;9.70;1.00;;;;;;5055186;28;20475;-60
2022/03/17 00:36:54;;;;;;;15.55;12.40;;;9.70;1.00;;;;;;5054165;28;20433;-61
2022/03/17 00:39:21;;;;;;;13.77;11.63;;;9.70;1.00;;;;;;5054256;28;20424;-60
2022/03/17 00:41:49;;;;;;;16.63;13.02;;;9.70;1.00;;;;;;5054691;28;20509;-60
2022/03/17 00:44:16;;;;;;;16.77;12.67;;;9.70;1.00;;;;;;5055346;28;20940;-60
2022/03/17 00:46:44;;;;;;;14.98;12.20;;;9.60;1.00;;;;;;5054026;28;20864;-60
2022/03/17 00:49:12;;;;;;;14.57;11.75;;;9.70;1.00;;;;;;5055631;28;20512;-60
2022/03/17 00:51:40;;;;;;;15.00;12.43;;;9.60;1.00;;;;;;5054965;28;20429;-60
2022/03/17 00:54:07;;;;;;;16.63;12.70;;;9.70;1.00;;;;;;5055735;28;20421;-60
2022/03/17 00:56:35;;;;;;;13.80;11.70;;;9.60;1.00;;;;;;5054953;28;20440;-60
2022/03/17 00:59:02;;;;;;;18.50;13.40;;;9.60;1.00;;;;;;5054860;28;20467;-60
2022/03/17 01:01:28;;;;;;;14.45;12.95;;;9.70;1.00;;;;;;5054876;28;20508;-58
2022/03/17 01:03:57;;;;;;;15.68;13.45;;;9.70;1.00;;;;;;5065760;28;20818;-60
2022/03/17 01:06:23;;;;;;;14.53;12.13;;;9.70;1.00;;;;;;5073626;28;20893;-60
2022/03/17 01:08:50;;;;;;;16.83;13.07;;;9.60;1.00;;;;;;5074017;28;20772;-60
2022/03/17 01:11:17;;;;;;;16.33;14.00;;;9.50;1.00;;;;;;5073391;28;20512;-60
2022/03/17 01:13:44;;;;;;;14.80;12.70;;;9.40;1.00;;;;;;5055184;28;20421;-60
2022/03/17 01:16:11;;;;;;;16.45;12.50;;;9.40;1.00;;;;;;5053826;28;20531;-60
2022/03/17 01:18:38;;;;;;;14.90;13.23;;;9.40;1.00;;;;;;5054173;28;20428;-60
2022/03/17 01:21:06;;;;;;;14.55;12.82;;;9.40;1.00;;;;;;5053805;28;20514;-60
2022/03/17 01:23:34;;;;;;;16.45;12.38;;;9.40;1.00;;;;;;5055136;28;20490;-60
2022/03/17 01:26:01;;;;;;;15.23;12.15;;;9.30;1.00;;;;;;5054025;28;20429;-60
2022/03/17 01:28:28;;;;;;;16.57;12.23;;;9.30;1.00;;;;;;5055399;28;20457;-60
2022/03/17 01:30:54;;;;;;;16.98;12.90;;;9.30;1.00;;;;;;5054310;28;20784;-59
2022/03/17 01:33:21;;;;;;;16.10;13.10;;;9.40;1.00;;;;;;5055049;28;20795;-61
2022/03/17 01:35:48;;;;;;;17.02;13.02;;;9.40;1.00;;;;;;5053832;28;20524;-60
2022/03/17 01:38:16;;;;;;;16.58;12.98;;;9.30;1.00;;;;;;5054360;28;20453;-60
2022/03/17 01:40:43;;;;;;;17.10;13.60;;;9.40;1.00;;;;;;5070464;28;20531;-60
2022/03/17 01:43:10;;;;;;;16.17;13.55;;;9.40;1.00;;;;;;5075455;28;20503;-60
2022/03/17 01:45:37;;;;;;;17.73;13.60;;;9.40;1.00;;;;;;5073878;28;20795;-59
2022/03/17 01:48:05;;;;;;;17.08;12.88;;;9.30;1.00;;;;;;5074646;28;20485;-60
2022/03/17 01:50:32;;;;;;;16.98;13.23;;;9.40;1.00;;;;;;5073661;28;20906;-60
2022/03/17 01:52:59;;;;;;;15.43;12.88;;;9.30;1.00;;;;;;5074404;28;20456;-60
2022/03/17 01:55:27;;;;;;;16.45;13.18;;;9.20;1.00;;;;;;5073995;28;20476;-60
2022/03/17 01:57:55;;;;;;;16.80;12.82;;;9.20;1.00;;;;;;5063597;28;20916;-59
2022/03/17 02:00:22;;;;;;;17.20;12.75;;;9.20;1.00;;;;;;5053141;28;20433;-60
2022/03/17 02:02:52;;;;;;;15.95;12.50;;;9.20;1.00;;;;;;5054501;28;20512;-60
2022/03/17 02:05:19;;;;;;;16.52;13.63;;;9.10;1.00;;;;;;5055095;28;20533;-60
2022/03/17 02:07:48;;;;;;;16.00;12.67;;;9.10;1.00;;;;;;5071054;28;20513;-60
2022/03/17 02:10:16;;;;;;;16.55;13.68;;;9.10;1.00;;;;;;5075019;28;20846;-59
2022/03/17 02:15:32;;;;;;;16.63;14.18;;;9.10;1.00;;;;;;5071932;28;20412;-60
2022/03/17 02:17:59;;;;;;;17.65;14.15;;;9.20;1.00;;;;;;5057988;28;20460;-59
2022/03/17 02:20:27;;;;;;;18.58;14.32;;;9.20;1.00;;;;;;5058889;28;20424;-60
2022/03/17 02:25:33;;;;;;;18.35;14.48;;;9.20;1.00;;;;;;5057272;28;20800;-60
2022/03/17 02:25:47;;;;;;;17.90;14.30;;;9.20;1.00;;;;;;5057939;28;20425;-60
2022/03/17 02:28:14;;;;;;;19.58;14.50;;;9.20;1.00;;;;;;5057569;28;20429;-60
2022/03/17 02:30:41;;;;;;;17.57;14.87;;;9.20;1.00;;;;;;5057963;28;20468;-60
2022/03/17 02:33:12;;;;;;;18.58;15.00;;;9.20;1.00;;;;;;5056538;28;20507;-60
2022/03/17 02:35:39;;;;;;;16.85;14.20;;;9.20;1.00;;;;;;5057979;28;20500;-60
2022/03/17 02:38:07;;;;;;;18.67;14.43;;;9.20;1.00;;;;;;5057482;28;20483;-60
2022/03/17 02:40:37;;;;;;;19.70;15.70;;;9.10;1.00;;;;;;5057867;28;21024;-60
2022/03/17 02:43:06;;;;;;;19.23;14.38;;;9.10;1.00;;;;;;5056894;28;20876;-59
2022/03/17 02:45:33;;;;;;;17.85;14.52;;;9.10;1.00;;;;;;5058558;28;20531;-60
2022/03/17 02:48:00;;;;;;;20.13;14.82;;;9.10;1.00;;;;;;5057925;28;20526;-59
2022/03/17 02:50:27;;;;;;;19.75;15.30;;;9.20;1.00;;;;;;5058193;28;20508;-59
2022/03/17 02:52:54;;;;;;;18.50;14.38;;;9.20;1.00;;;;;;5058017;28;20465;-59
2022/03/17 02:55:21;;;;;;;18.20;14.82;;;9.10;1.00;;;;;;5057306;28;20425;-60
2022/03/17 02:57:49;;;;;;;18.73;15.23;;;9.00;1.00;;;;;;5057556;28;20584;-60
2022/03/17 03:00:18;;;;;;;21.67;15.90;;;9.00;1.00;;;;;;5057567;28;20444;-60
2022/03/17 03:02:45;;;;;;;18.13;14.70;;;9.00;1.00;;;;;;5058348;28;20421;-60
2022/03/17 03:05:12;;;;;;;19.23;15.20;;;9.00;1.00;;;;;;5056668;28;20959;-59
2022/03/17 03:07:39;;;;;;;19.20;15.90;;;9.10;1.00;;;;;;5057546;28;20794;-60
2022/03/17 03:10:07;;;;;;;20.17;15.20;;;9.10;1.00;;;;;;5056237;28;20433;-60
2022/03/17 03:12:35;;;;;;;19.27;15.13;;;9.10;1.00;;;;;;5057917;28;20915;-60
2022/03/17 03:15:02;;;;;;;19.02;15.00;;;9.00;1.00;;;;;;5056571;28;20421;-60
2022/03/17 03:17:30;;;;;;;20.23;15.93;;;9.00;1.00;;;;;;5058111;28;20516;-60
2022/03/17 03:19:57;;;;;;;19.67;15.50;;;9.00;1.00;;;;;;5056205;28;20457;-59
2022/03/17 03:22:28;;;;;;;18.75;15.40;;;9.00;1.00;;;;;;5057965;28;20868;-59
2022/03/17 03:24:56;;;;;;;18.92;15.55;;;9.00;1.00;;;;;;5056036;28;20452;-59
2022/03/17 03:27:34;;;;;;;18.92;15.13;;;9.00;1.00;;;;;;5057173;28;20434;-60
2022/03/17 03:30:01;;;;;;;20.83;16.35;;;9.00;1.00;;;;;;5055996;28;20491;-60
2022/03/17 03:32:29;;;;;;;18.30;14.48;;;9.00;1.00;;;;;;5057668;28;20507;-60
2022/03/17 03:34:56;;;;;;;18.98;14.45;;;8.90;1.00;;;;;;5056965;28;20572;-59
2022/03/17 03:37:25;;;;;;;21.83;15.45;;;8.90;1.00;;;;;;5056514;28;20916;-59
2022/03/17 03:39:52;;;;;;;19.27;14.70;;;8.90;1.00;;;;;;5056713;28;20503;-59
2022/03/17 03:42:20;;;;;;;20.02;15.57;;;9.00;1.00;;;;;;5056460;28;20460;-60
2022/03/17 03:44:48;;;;;;;17.73;14.30;;;9.00;1.00;;;;;;5055999;28;20787;-60
2022/03/17 03:47:16;;;;;;;17.45;13.48;;;9.00;1.00;;;;;;5056609;28;20494;-59
2022/03/17 03:49:45;;;;;;;20.13;15.27;;;9.00;1.00;;;;;;5055615;28;20516;-60
2022/03/17 03:52:14;;;;;;;19.53;14.07;;;9.00;1.00;;;;;;5056962;28;20460;-60
2022/03/17 03:54:41;;;;;;;18.40;14.45;;;9.00;1.00;;;;;;5055418;28;20525;-60
2022/03/17 03:57:08;;;;;;;19.73;15.07;;;9.10;1.00;;;;;;5056827;28;20492;-60
2022/03/17 03:59:35;;;;;;;18.87;14.20;;;9.10;1.00;;;;;;5055918;28;20475;-60
2022/03/17 04:02:04;;;;;;;18.20;14.65;;;9.10;1.00;;;;;;5056827;28;20790;-60
2022/03/17 04:04:34;;;;;;;16.77;14.02;;;9.10;1.00;;;;;;5055535;28;20545;-60
2022/03/17 04:07:04;;;;;;;18.80;13.57;;;9.00;1.00;;;;;;5056778;28;20513;-60
2022/03/17 04:09:33;;;;;;;17.50;13.60;;;9.00;1.00;;;;;;5055634;28;20451;-60
2022/03/17 04:12:00;;;;;;;17.50;13.18;;;9.00;1.00;;;;;;5055204;28;20461;-60
2022/03/17 04:14:28;;;;;;;17.75;14.63;;;8.90;1.00;;;;;;5073181;28;20941;-59
2022/03/17 04:16:55;;;;;;;18.88;15.50;;;9.00;1.00;;;;;;5075273;28;20435;-60
2022/03/17 04:19:21;;;;;;;19.00;14.40;;;9.00;1.00;;;;;;5075346;28;20542;-60
2022/03/17 04:21:50;;;;;;;20.60;14.75;;;8.90;1.00;;;;;;5069016;28;20516;-59
2022/03/17 04:24:19;;;;;;;19.98;15.40;;;8.90;1.00;;;;;;5055287;28;20472;-60
2022/03/17 04:26:46;;;;;;;19.38;15.85;;;8.90;1.00;;;;;;5055755;28;20454;-59
2022/03/17 04:29:15;;;;;;;20.00;14.97;;;8.90;1.00;;;;;;5055186;28;20912;-59
2022/03/17 04:31:43;;;;;;;19.38;14.73;;;8.90;1.00;;;;;;5056252;28;20744;-60
2022/03/17 04:34:10;;;;;;;19.60;15.18;;;8.90;1.00;;;;;;5055060;28;20841;-60
2022/03/17 04:36:37;;;;;;;21.33;15.45;;;8.80;1.00;;;;;;5055606;28;20880;-60
2022/03/17 04:39:06;;;;;;;18.63;15.00;;;8.80;1.00;;;;;;5054796;28;20849;-60
2022/03/17 04:41:34;;;;;;;17.73;14.50;;;8.80;1.00;;;;;;5055981;28;20456;-60
2022/03/17 04:44:01;;;;;;;22.10;16.10;;;8.80;1.00;;;;;;5054417;28;20429;-60
2022/03/17 04:46:28;;;;;;;20.42;15.70;;;8.70;1.00;;;;;;5055437;28;20483;-59
2022/03/17 04:48:55;;;;;;;20.27;15.60;;;8.70;1.00;;;;;;5053385;28;20540;-60
2022/03/17 04:51:22;;;;;;;20.98;15.70;;;8.70;1.00;;;;;;5054994;28;20425;-59
2022/03/17 04:53:48;;;;;;;19.17;14.85;;;8.70;1.00;;;;;;5053934;28;20504;-60
2022/03/17 04:56:17;;;;;;;22.27;15.15;;;8.80;1.00;;;;;;5055936;28;20766;-59
2022/03/17 04:58:47;;;;;;;21.00;15.70;;;8.80;1.00;;;;;;5054090;28;20433;-60
2022/03/17 05:01:14;;;;;;;18.43;13.97;;;8.70;1.00;;;;;;5055404;28;20471;-60
2022/03/17 05:03:42;;;;;;;20.60;16.08;;;8.70;1.00;;;;;;5053952;28;20475;-60
2022/03/17 05:06:12;;;;;;;20.00;14.63;;;8.70;1.00;;;;;;5055616;28;20461;-59
2022/03/17 05:08:40;;;;;;;21.33;15.10;;;8.80;1.00;;;;;;5053136;28;20736;-59
2022/03/17 05:11:07;;;;;;;21.17;15.02;;;8.70;1.00;;;;;;5055515;28;20455;-59
2022/03/17 05:13:35;;;;;;;21.13;16.52;;;8.70;1.00;;;;;;5053755;28;20436;-57
2022/03/17 05:16:04;;;;;;;20.63;15.88;;;8.70;1.00;;;;;;5055051;28;20748;-59
2022/03/17 05:18:31;;;;;;;19.30;14.85;;;8.60;1.00;;;;;;5055376;28;20826;-59
2022/03/17 05:20:58;;;;;;;21.65;16.15;;;8.50;1.00;;;;;;5053805;28;20516;-60
2022/03/17 05:23:25;;;;;;;21.67;15.68;;;8.50;1.00;;;;;;5053587;28;20536;-59
2022/03/17 05:25:52;;;;;;;21.00;15.85;;;8.50;1.00;;;;;;5050812;28;20538;-59
2022/03/17 05:28:20;;;;;;;21.33;16.02;;;8.50;1.00;;;;;;5051946;28;20420;-59
2022/03/17 05:30:47;;;;;;;22.80;15.88;;;8.50;1.00;;;;;;5052330;28;20491;-59
2022/03/17 05:33:16;;;;;;;20.70;15.40;;;8.60;1.00;;;;;;5053760;28;20452;-59
2022/03/17 05:35:44;;;;;;;20.90;15.20;;;8.60;1.00;;;;;;5053105;28;20519;-60
2022/03/17 05:38:12;;;;;;;20.73;16.17;;;8.60;1.00;;;;;;5054972;28;20515;-60
2022/03/17 05:40:39;;;;;;;22.08;16.35;;;8.60;1.00;;;;;;5052654;28;20551;-59
2022/03/17 05:43:07;;;;;;;21.83;15.48;;;8.50;1.00;;;;;;5053727;28;20957;-59
2022/03/17 05:45:35;;;;;;;20.88;15.43;;;8.50;1.00;;;;;;5053417;28;20955;-59
2022/03/17 05:48:04;;;;;;;21.33;15.50;;;8.50;1.00;;;;;;5054735;28;20837;-59
2022/03/17 05:50:37;;;;;;;23.38;17.13;;;8.50;1.00;;;;;;5052924;28;20511;-59
2022/03/17 05:53:04;;;;;;;22.20;16.83;;;8.50;1.00;;;;;;5053579;28;20429;-59
2022/03/17 05:55:31;;;;;;;21.70;16.08;;;8.50;1.00;;;;;;5052846;28;20937;-59
2022/03/17 05:57:59;;;;;;;26.05;17.23;;;8.40;1.00;;;;;;5054490;28;20424;-59
2022/03/17 06:00:27;;;;;;;22.30;16.60;;;8.50;1.00;;;;;;5052520;28;20456;-59
2022/03/17 06:02:55;;;;;;;23.75;16.23;;;8.60;1.00;;;;;;5052193;28;20436;-59
2022/03/17 06:05:23;;;;;;;20.42;15.70;;;8.50;1.00;;;;;;5049962;28;20440;-59
2022/03/17 06:07:52;;;;;;;22.45;16.27;;;8.50;1.00;;;;;;5051910;28;20771;-59
2022/03/17 06:10:21;;;;;;;22.27;15.57;;;8.60;1.00;;;;;;5051067;28;20472;-59
2022/03/17 06:12:49;;;;;;;23.13;16.52;;;8.60;1.00;;;;;;5052062;28;20428;-59
2022/03/17 06:15:16;;;;;;;22.13;16.05;;;8.50;1.00;;;;;;5050751;28;20429;-59
2022/03/17 06:17:47;;;;;;;23.10;16.58;;;8.50;1.00;;;;;;5053402;28;20452;-60
2022/03/17 06:20:16;;;;;;;22.40;15.40;;;8.50;1.00;;;;;;5053355;28;20433;-59
2022/03/17 06:22:45;;;;;;;22.15;16.67;;;8.60;1.00;;;;;;5052763;28;20417;-60
2022/03/17 06:25:15;;;;;;;24.10;17.77;;;8.60;1.00;;;;;;5050808;28;20468;-59
2022/03/17 06:27:43;;;;;;;21.48;16.52;;;8.60;1.00;;;;;;5052492;28;20509;-59
2022/03/17 06:30:12;;;;;;;21.70;15.60;;;8.60;1.00;;;;;;5050517;28;20433;-60
2022/03/17 06:32:39;;;;;;;22.23;16.48;;;8.70;1.00;;;;;;5051847;28;20499;-60
2022/03/17 06:35:08;;;;;;;22.17;16.13;;;8.70;1.00;;;;;;5051695;28;20425;-59
2022/03/17 06:37:35;;;;;;;21.65;16.40;;;8.70;1.00;;;;;;5052515;28;20424;-59
2022/03/17 06:40:02;;;;;;;20.10;15.95;;;8.70;1.00;;;;;;5052598;28;20520;-60
2022/03/17 06:42:30;;;;;;;22.90;16.60;;;8.70;1.00;;;;;;5052987;28;20503;-59
2022/03/17 06:44:57;;;;;;;21.98;15.80;;;8.70;1.00;;;;;;5051594;28;20515;-60
2022/03/17 06:47:24;;;;;;;24.40;17.00;;;8.70;1.00;;;;;;5050531;28;20778;-59
2022/03/17 06:49:51;;;;;;;23.40;17.48;;;8.80;1.00;;;;;;5050421;28;20468;-59
2022/03/17 06:52:18;;;;;;;20.65;15.45;;;8.70;1.00;;;;;;5051494;28;20417;-59
2022/03/17 06:54:45;;;;;;;20.40;14.57;;;8.90;1.00;;;;;;5049639;28;20527;-59
2022/03/17 06:57:16;;;;;;;23.75;17.42;;;9.00;1.00;;;;;;5055281;28;20502;-59
2022/03/17 06:59:44;;;;;;;22.35;15.68;;;9.10;1.00;;;;;;5069539;28;20416;-58
2022/03/17 07:02:11;;;;;;;21.00;16.35;;;9.10;1.00;;;;;;5074787;28;20459;-59
2022/03/17 07:04:38;;;;;;;21.50;15.90;;;9.10;1.00;;;;;;5072713;28;20521;-59
2022/03/17 07:07:05;;;;;;;20.50;15.02;;;9.10;1.00;;;;;;5055980;28;20931;-59
2022/03/17 07:09:32;;;;;;;23.58;17.48;;;9.00;1.00;;;;;;5055027;28;20531;-58
2022/03/17 07:11:59;;;;;;;22.30;16.27;;;8.90;1.00;;;;;;5063773;28;20454;-58
2022/03/17 07:14:26;;;;;;;14.80;10.83;;;8.90;1.00;;;;;;5069818;28;20958;-58
2022/03/17 07:16:54;;;;;;;18.80;11.37;;;9.00;1.00;;;;;;5073728;28;20513;-58
2022/03/17 07:19:21;;;;;;;21.77;12.70;;;9.10;1.00;;;;;;5073410;28;20459;-59
2022/03/17 07:21:48;;;;;;;18.67;12.60;;;9.00;1.00;;;;;;5072984;28;20528;-58
2022/03/17 07:24:15;;;;;;;20.67;10.93;;;9.00;1.00;;;;;;5074765;28;20751;-60
2022/03/17 07:26:42;;;;;;;18.00;13.00;;;9.00;3.20;;;;;;5075647;28;20470;-58
2022/03/17 07:29:09;;;;;;;19.83;11.60;;;8.90;17.60;;;;;;5074402;28;20488;-60
2022/03/17 07:31:36;;;;;;;20.77;11.97;;;9.00;27.40;;;;;;5074397;28;20442;-59
2022/03/17 07:34:05;;;;;;;21.60;12.40;;;9.00;22.30;;;;;;5074334;28;20489;-59
2022/03/17 07:36:32;;;;;;;22.10;12.97;;;9.00;18.90;;;;;;5077059;28;20813;-59
2022/03/17 07:39:01;;;;;;;21.10;13.30;;;9.00;17.10;;;;;;5076261;28;20489;-58
2022/03/17 07:41:28;;;;;;;21.03;11.77;;;9.00;27.90;;;;;;5075257;28;20450;-59
2022/03/17 07:43:54;;;;;;;19.87;11.77;;;9.00;22.10;;;;;;5075330;28;20461;-59
2022/03/17 07:46:21;;;;;;;18.17;12.73;;;9.00;31.90;;;;;;5077144;28;20964;-59
2022/03/17 07:48:48;;;;;;;16.83;12.10;;;9.00;29.30;;;;;;5076642;28;20442;-59
2022/03/17 07:51:16;;;;;;;19.07;12.40;;;9.10;22.00;;;;;;5077288;28;20521;-59
2022/03/17 07:53:44;;;;;;;17.77;12.03;;;9.20;23.70;;;;;;5074680;28;20621;-50
2022/03/17 07:56:14;;;;;;;28.83;14.13;;;9.20;27.20;;;;;;5070067;28;20526;-48
2022/03/17 07:58:41;;;;;;;22.80;13.20;;;9.30;2.30;;;;;;5072143;28;20451;-49
2022/03/17 08:01:08;;;;;;;17.60;10.77;;;9.40;4.70;;;;;;5072097;28;20533;-51
2022/03/17 08:03:35;;;;;;;20.57;12.00;;;9.50;8.40;;;;;;5071120;28;20466;-50
2022/03/17 08:06:02;;;;;;;19.70;12.00;;;9.50;7.20;;;;;;5072146;28;20470;-53
2022/03/17 08:08:30;;;;;;;21.58;14.65;;;9.60;1.00;;;;;;5064664;28;20442;-52
2022/03/17 08:10:58;;;;;;;19.50;12.20;;;9.70;5.70;;;;;;5070107;28;20238;-51
2022/03/17 08:13:25;;;;;;;19.57;14.60;;;9.70;8.20;;;;;;5072161;28;20454;-52
2022/03/17 08:15:52;;;;;;;22.20;14.67;;;9.80;1.00;;;;;;5073611;28;20524;-46
2022/03/17 08:18:19;;;;;;;21.33;11.73;;;9.70;1.00;;;;;;5075345;28;20977;-47
2022/03/17 08:20:46;;;;;;;21.40;13.83;;;9.70;1.00;;;;;;5073142;28;20581;-53
2022/03/17 08:23:19;;;;;;;20.20;13.33;;;9.70;1.00;;;;;;5074252;28;20529;-59
2022/03/17 08:25:48;;;;;;;20.83;12.47;;;9.80;1.00;;;;;;5073091;28;20568;-60
2022/03/17 08:28:17;;;;;;;18.63;12.17;;;10.00;1.00;;;;;;5074270;28;20450;-60
2022/03/17 08:30:46;;;;;;;20.23;11.93;;;10.00;1.00;;;;;;5073603;28;20463;-60
2022/03/17 08:33:13;;;;;;;21.50;13.80;;;10.00;1.00;;;;;;5074575;28;20525;-59
2022/03/17 08:35:40;;;;;;;22.53;13.17;;;10.00;1.00;;;;;;5073403;28;20909;-59
2022/03/17 08:38:07;;;;;;;14.13;10.53;;;10.00;1.00;;;;;;5071964;28;20438;-60
2022/03/17 08:40:35;;;;;;;21.80;12.93;;;10.10;1.00;;;;;;5071476;28;21080;-59
2022/03/17 08:43:03;;;;;;;22.53;13.03;;;10.10;1.00;;;;;;5072864;28;20882;-59
2022/03/17 08:51:13;;;;;;;20.37;13.10;;;10.00;1.00;;;;;;5026632;28;20475;-60
2022/03/17 08:53:41;;;;;;;17.90;12.10;;;10.00;1.00;;;;;;5046692;28;20577;-62
2022/03/17 08:56:08;;;;;;;19.67;12.10;;;10.00;1.00;;;;;;5072886;28;20454;-62
2022/03/17 08:58:37;;;;;;;27.17;14.17;;;10.00;1.00;;;;;;5073400;28;20531;-61
2022/03/17 09:01:04;;;;;;;16.10;11.37;;;10.10;1.00;;;;;;5073794;28;20986;-61
2022/03/17 09:03:32;;;;;;;25.83;13.73;;;10.10;1.00;;;;;;5072592;28;20462;-61
2022/03/17 09:06:01;;;;;;;21.50;14.40;;;10.10;1.00;;;;;;5073727;28;20778;-61
2022/03/17 09:08:28;;;;;;;18.67;11.80;;;10.00;1.00;;;;;;5073693;28;20814;-61
2022/03/17 09:10:56;;;;;;;21.10;12.30;;;10.10;1.00;;;;;;5067232;28;20543;-59
2022/03/17 09:13:25;;;;;;;21.30;13.37;;;10.20;1.00;;;;;;5072627;28;20461;-59
2022/03/17 09:15:54;;;;;;;14.80;10.90;;;10.40;1.00;;;;;;5071776;28;20454;-60
2022/03/17 09:18:22;;;;;;;23.67;13.67;;;10.40;1.00;;;;;;5071986;28;20450;-61
2022/03/17 09:20:49;;;;;;;17.60;11.73;;;10.40;1.00;;;;;;5072463;28;20860;-61
2022/03/17 09:23:17;;;;;;;20.10;12.20;;;10.40;1.00;;;;;;5071960;28;20533;-61
2022/03/17 09:25:45;;;;;;;20.93;12.30;;;10.40;1.00;;;;;;5072923;28;20525;-61
2022/03/17 09:28:12;;;;;;;18.97;10.77;;;10.40;1.00;;;;;;5070707;28;21318;-62
2022/03/17 09:30:39;;;;;;;20.97;12.30;;;10.30;1.00;;;;;;5070582;28;20481;-60
2022/03/17 09:33:09;;;;;;;20.37;13.20;;;10.30;1.00;;;;;;5071998;28;20487;-62
2022/03/17 09:35:36;;;;;;;22.27;12.07;;;10.40;1.00;;;;;;5072436;28;20749;-60
2022/03/17 09:38:04;;;;;;;19.80;12.97;;;10.40;1.00;;;;;;5072902;28;20555;-60
2022/03/17 09:40:31;;;;;;;20.47;13.77;;;10.50;1.00;;;;;;5074099;28;20450;-60
2022/03/17 09:45:42;;;;;;;19.10;11.23;;;10.70;1.00;;;;;;5071554;28;20460;-60
2022/03/17 09:48:12;;;;;;;16.57;10.00;;;10.70;1.00;;;;;;5072056;28;20443;-60
2022/03/17 09:50:40;;;;;;;14.60;10.60;;;10.80;1.00;;;;;;5072411;28;20521;-60
2022/03/17 09:53:07;;;;;;;18.53;10.20;;;10.80;1.00;;;;;;5070696;28;20543;-59
2022/03/17 09:55:35;;;;;;;14.93;10.27;;;10.80;1.00;;;;;;5072072;28;20446;-59
2022/03/17 09:58:02;;;;;;;15.67;9.30;;;10.90;1.00;;;;;;5073173;28;20435;-59
2022/03/17 10:00:47;;;;;;;18.67;10.67;;;10.80;1.00;;;;;;5073345;28;20447;-59
2022/03/17 10:03:16;;;;;;;18.60;12.60;;;11.00;1.00;;;;;;5072827;28;20532;-60
2022/03/17 10:05:45;;;;;;;14.77;10.80;;;11.20;1.00;;;;;;5073463;28;20516;-60
2022/03/17 10:08:12;;;;;;;16.43;11.50;;;11.40;1.00;;;;;;5071011;28;20489;-60
2022/03/17 10:10:43;;;;;;;17.37;10.67;;;11.60;99.90;;;;;;5070571;28;20449;-58
2022/03/17 10:13:13;;;;;;;15.30;8.53;;;11.70;99.90;;;;;;5070013;28;20910;-59
2022/03/17 10:15:40;;;;;;;14.23;10.07;;;11.80;99.90;;;;;;5067469;28;20442;-58
2022/03/17 10:18:23;;;;;;;13.63;9.80;;;12.00;1.00;;;;;;5065898;28;20890;-59
2022/03/17 10:21:06;;;;;;;19.90;12.43;;;12.10;99.90;;;;;;5063973;28;20474;-63
2022/03/17 10:23:34;;;;;;;11.47;9.40;;;12.10;1.00;;;;;;5070852;28;20454;-59
2022/03/17 10:26:01;;;;;;;15.77;10.20;;;11.90;99.80;;;;;;5062996;28;20447;-59
2022/03/17 10:28:27;;;;;;;14.20;9.83;;;11.80;1.00;;;;;;5063268;28;20442;-60
2022/03/17 10:31:04;;;;;;;14.60;10.67;;;11.80;1.00;;;;;;5064557;28;20523;-59
2022/03/17 10:33:33;;;;;;;20.10;13.80;;;11.90;1.00;;;;;;5068728;28;20544;-59
2022/03/17 10:36:20;;;;;;;28.70;18.33;;;11.80;1.00;;;;;;5071127;28;20534;-59
2022/03/17 10:38:49;;;;;;;19.73;11.87;;;12.00;1.00;;;;;;5070681;28;20472;-59
2022/03/17 10:41:17;;;;;;;16.43;10.90;;;12.00;99.90;;;;;;5075394;28;20481;-59
2022/03/17 10:43:44;;;;;;;17.40;11.03;;;12.10;1.00;;;;;;5076757;28;20550;-59
2022/03/17 10:46:13;;;;;;;19.40;11.50;;;12.20;99.90;;;;;;5075681;28;20537;-59
2022/03/17 10:49:06;;;;;;;19.50;9.97;;;12.30;99.90;;;;;;5072032;28;21084;-59
2022/03/17 10:51:35;;;;;;;15.30;9.93;;;12.50;99.90;;;;;;5054524;28;20537;-59
2022/03/17 10:54:06;;;;;;;13.80;9.30;;;12.70;1.00;;;;;;5072078;28;20482;-59
2022/03/17 10:56:35;;;;;;;14.00;9.00;;;12.80;1.00;;;;;;5075465;28;20881;-59
2022/03/17 10:59:02;;;;;;;13.57;9.13;;;12.80;1.00;;;;;;5076679;28;20552;-59
2022/03/17 11:01:37;;;;;;;14.47;9.67;;;12.90;1.00;;;;;;5076489;28;20449;-59
2022/03/17 11:04:06;;;;;;;14.33;8.73;;;12.90;99.90;;;;;;5068300;28;21047;-59
2022/03/17 11:06:33;;;;;;;15.30;8.67;;;13.00;99.90;;;;;;5071182;28;20510;-59
2022/03/17 11:09:01;;;;;;;10.40;7.83;;;12.90;1.00;;;;;;5075776;28;20460;-59
2022/03/17 11:11:29;;;;;;;16.00;9.17;;;12.90;1.00;;;;;;5056580;28;20443;-59
2022/03/17 11:13:57;;;;;;;11.50;8.03;;;12.90;1.00;;;;;;5054470;28;20458;-59
2022/03/17 11:16:37;;;;;;;8.90;5.80;;;12.90;6.70;;;;;;5057467;28;20446;-60
2022/03/17 11:19:07;;;;;;;13.80;9.07;;;12.90;33.40;;;;;;5064452;28;20450;-60
2022/03/17 11:21:34;;;;;;;11.53;8.30;;;12.90;59.00;;;;;;5074113;28;20582;-60
2022/03/17 11:24:05;;;;;;;15.57;8.97;;;12.80;99.90;;;;;;5056167;28;20565;-60
2022/03/17 11:26:35;;;;;;;17.37;8.67;;;12.80;99.90;;;;;;5056771;28;20448;-59
2022/03/17 11:29:07;;;;;;;16.50;8.43;;;12.90;99.90;;;;;;5055547;28;20455;-59
2022/03/17 11:31:50;;;;;;;15.47;9.90;;;12.80;88.40;;;;;;5056176;28;20447;-59
2022/03/17 11:34:38;;;;;;;17.60;10.53;;;12.70;99.90;;;;;;5055566;28;20451;-59
2022/03/17 11:37:22;;;;;;;17.33;8.07;;;12.70;99.90;;;;;;5056441;28;20447;-59
2022/03/17 11:39:51;;;;;;;14.07;9.80;;;12.60;1.00;;;;;;5054301;28;20455;-60
2022/03/17 11:42:46;;;;;;;11.97;8.77;;;12.40;1.00;;;;;;5056032;28;20447;-63
2022/03/17 11:45:42;;;;;;;14.53;9.30;;;12.30;1.00;;;;;;5056139;28;20462;-59
2022/03/17 11:48:14;;;;;;;14.63;8.77;;;12.40;1.00;;;;;;5054974;28;20490;-59
2022/03/17 11:50:45;;;;;;;19.17;9.97;;;12.40;1.00;;;;;;5052909;28;20454;-59
2022/03/17 11:53:37;;;;;;;18.43;10.40;;;12.40;1.00;;;;;;5053871;28;20455;-59
2022/03/17 11:56:05;;;;;;;17.57;10.00;;;12.30;1.00;;;;;;5052770;28;20766;-59
2022/03/17 11:58:39;;;;;;;13.97;9.30;;;12.20;1.00;;;;;;5050991;28;20531;-59
2022/03/17 12:01:09;;;;;;;18.40;9.40;;;12.30;1.00;;;;;;5053132;28;20450;-58
2022/03/17 12:03:39;;;;;;;13.20;8.50;;;12.40;1.00;;;;;;5070359;28;21035;-59
2022/03/17 12:06:12;;;;;;;21.83;11.50;;;12.50;1.00;;;;;;5074599;28;20717;-59
2022/03/17 12:08:41;;;;;;;18.10;9.40;;;12.40;1.00;;;;;;5070745;28;20539;-59
2022/03/17 12:11:13;;;;;;;21.33;10.60;;;12.20;1.00;;;;;;5074224;28;20447;-59
2022/03/17 12:13:40;;;;;;;19.80;11.20;;;12.30;1.00;;;;;;5074293;28;20460;-59
2022/03/17 12:16:08;;;;;;;15.50;10.40;;;12.30;1.00;;;;;;5073318;28;20478;-58
2022/03/17 12:19:00;;;;;;;20.40;12.70;;;12.10;1.10;;;;;;5063095;28;20478;-59
2022/03/17 12:22:02;;;;;;;17.80;11.27;;;12.20;15.50;;;;;;5072006;28;20481;-58
2022/03/17 12:24:39;;;;;;;18.87;11.63;;;12.10;1.00;;;;;;5069384;28;20450;-58
2022/03/17 12:27:11;;;;;;;20.60;10.80;;;12.20;1.00;;;;;;5074215;28;20590;-58
2022/03/17 12:29:38;;;;;;;16.40;10.27;;;12.20;1.00;;;;;;5073236;28;20552;-59
2022/03/17 12:32:07;;;;;;;17.17;10.60;;;12.20;1.00;;;;;;5072080;28;20562;-59
2022/03/17 12:34:35;;;;;;;17.43;10.47;;;12.30;1.00;;;;;;5069315;28;20512;-59
2022/03/17 12:37:03;;;;;;;16.80;11.03;;;12.50;1.00;;;;;;5061996;28;20518;-60
2022/03/17 12:39:31;;;;;;;16.63;11.13;;;12.50;1.00;;;;;;5073955;28;20450;-60
2022/03/17 12:42:00;;;;;;;15.83;10.47;;;12.50;1.00;;;;;;5073453;28;20576;-59
2022/03/17 12:44:28;;;;;;;14.60;10.40;;;12.50;1.00;;;;;;5072885;28;20900;-61
2022/03/17 12:46:56;;;;;;;15.93;10.57;;;12.60;1.00;;;;;;5069005;28;20474;-58
2022/03/17 12:49:23;;;;;;;17.23;11.53;;;12.60;1.00;;;;;;5073690;28;20458;-58
2022/03/17 12:51:50;;;;;;;20.80;12.50;;;12.50;1.00;;;;;;5074576;28;20486;-61
2022/03/17 12:54:18;;;;;;;17.37;12.33;;;12.40;1.00;;;;;;5073501;28;20501;-60
2022/03/17 12:56:49;;;;;;;18.20;13.20;;;12.40;1.00;;;;;;5046721;28;20506;-60
2022/03/17 12:59:17;;;;;;;18.53;12.20;;;12.50;1.00;;;;;;5031991;28;20881;-60
2022/03/17 13:01:46;;;;;;;20.10;12.03;;;12.40;1.00;;;;;;5036782;28;20454;-60